createdAt,value
2022-09-17T00:00:59.082Z,99660.63
2022-09-17T00:03:30.850Z,99655.91
2022-09-17T00:06:03.171Z,99669.75
2022-09-17T00:08:34.947Z,99672.16
2022-09-17T00:11:06.640Z,99681.56
2022-09-17T00:13:38.567Z,99679.44
2022-09-17T00:16:10.140Z,99683.41
2022-09-17T00:18:42.251Z,99688.00
2022-09-17T00:21:13.707Z,99685.84
2022-09-17T00:23:45.521Z,99686.97
2022-09-17T00:26:17.005Z,99693.34
2022-09-17T00:28:49.762Z,99692.84
2022-09-17T00:31:21.247Z,99699.78
2022-09-17T00:33:53.003Z,99701.66
2022-09-17T00:36:24.499Z,99701.41
2022-09-17T00:38:56.021Z,99703.03
2022-09-17T00:41:27.558Z,99706.75
2022-09-17T00:43:59.550Z,99699.84
2022-09-17T00:46:31.523Z,99700.41
2022-09-17T00:49:03.550Z,99698.25
2022-09-17T00:51:35.036Z,99700.91
2022-09-17T00:54:07.197Z,99702.53
2022-09-17T00:56:38.647Z,99707.56
2022-09-17T00:59:10.467Z,99715.91
2022-09-17T01:01:41.972Z,99715.91
2022-09-17T01:04:13.823Z,99726.59
2022-09-17T01:06:45.272Z,99723.13
2022-09-17T01:09:17.231Z,99734.66
2022-09-17T01:11:48.688Z,99736.53
2022-09-17T01:14:21.074Z,99736.28
2022-09-17T01:16:52.708Z,99731.78
2022-09-17T01:19:25.429Z,99731.75
2022-09-17T01:21:56.889Z,99739.50
2022-09-17T01:24:29.241Z,99727.72
2022-09-17T01:27:00.700Z,99727.72
2022-09-17T01:29:32.585Z,99728.75
2022-09-17T01:32:04.033Z,99736.28
2022-09-17T01:34:35.835Z,99737.38
2022-09-17T01:37:07.281Z,99741.00
2022-09-17T01:39:39.221Z,99739.00
2022-09-17T01:42:11.252Z,99741.34
2022-09-17T01:44:43.050Z,99741.59
2022-09-17T01:47:18.848Z,99742.66
2022-09-17T01:49:52.689Z,99745.34
2022-09-17T01:52:24.161Z,99744.28
2022-09-17T01:54:55.919Z,99753.28
2022-09-17T01:57:27.372Z,99752.78
2022-09-17T01:59:59.820Z,99754.94
2022-09-17T02:02:31.308Z,99755.50
2022-09-17T02:05:03.095Z,99758.69
2022-09-17T02:07:34.547Z,99760.03
2022-09-17T02:10:06.340Z,99753.41
2022-09-17T02:12:37.805Z,99760.34
2022-09-17T02:15:09.619Z,99761.22
2022-09-17T02:17:41.075Z,99767.94
2022-09-17T02:20:12.940Z,99762.59
2022-09-17T02:22:44.632Z,99758.88
2022-09-17T02:25:16.494Z,99764.13
2022-09-17T02:27:47.965Z,99761.56
2022-09-17T02:30:19.897Z,99758.88
2022-09-17T02:32:51.532Z,99765.03
2022-09-17T02:35:23.267Z,99760.00
2022-09-17T02:37:54.710Z,99757.88
2022-09-17T02:40:28.170Z,99760.31
2022-09-17T02:42:59.773Z,99751.72
2022-09-17T02:45:31.729Z,99760.31
2022-09-17T02:48:03.254Z,99757.88
2022-09-17T02:50:35.006Z,99759.00
2022-09-17T02:53:06.665Z,99761.06
2022-09-17T02:55:38.421Z,99757.94
2022-09-17T02:58:09.882Z,99756.88
2022-09-17T03:00:41.767Z,99752.09
2022-09-17T03:03:13.664Z,99748.91
2022-09-17T03:05:45.781Z,99751.84
2022-09-17T03:08:18.885Z,99748.38
2022-09-17T03:10:50.342Z,99742.53
2022-09-17T03:13:22.084Z,99749.22
2022-09-17T03:15:53.579Z,99746.00
2022-09-17T03:18:25.671Z,99751.03
2022-09-17T03:20:57.523Z,99747.88
2022-09-17T03:23:29.012Z,99752.09
2022-09-17T03:26:00.963Z,99756.88
2022-09-17T03:28:32.421Z,99747.88
2022-09-17T03:31:06.120Z,99754.50
2022-09-17T03:33:37.693Z,99749.47
2022-09-17T03:36:09.504Z,99752.41
2022-09-17T03:38:41.281Z,99754.81
2022-09-17T03:41:12.770Z,99745.69
2022-09-17T03:43:44.558Z,99754.50
2022-09-17T03:46:16.063Z,99749.72
2022-09-17T03:48:47.847Z,99758.78
2022-09-17T03:51:19.302Z,99753.69
2022-09-17T03:53:51.129Z,99755.31
2022-09-17T03:56:22.646Z,99748.91
2022-09-17T03:58:54.454Z,99766.81
2022-09-17T04:01:25.943Z,99765.44
2022-09-17T04:03:57.989Z,99764.38
2022-09-17T04:06:29.534Z,99769.16
2022-09-17T04:09:01.405Z,99769.97
2022-09-17T04:11:32.923Z,99768.41
2022-09-17T04:14:04.639Z,99771.47
2022-09-17T04:16:36.162Z,99775.19
2022-09-17T04:19:08.014Z,99773.81
2022-09-17T04:21:39.479Z,99775.44
2022-09-17T04:24:11.375Z,99767.91
2022-09-17T04:26:42.829Z,99778.03
2022-09-17T04:29:14.832Z,99773.75
2022-09-17T04:31:46.356Z,99777.22
2022-09-17T04:34:18.299Z,99768.91
2022-09-17T04:36:49.746Z,99772.94
2022-09-17T04:39:21.694Z,99769.72
2022-09-17T04:41:53.165Z,99772.41
2022-09-17T04:44:25.046Z,99778.84
2022-09-17T04:46:56.584Z,99778.59
2022-09-17T04:49:30.884Z,99774.63
2022-09-17T04:52:02.864Z,99783.22
2022-09-17T04:54:34.320Z,99776.25
2022-09-17T04:57:06.192Z,99771.47
2022-09-17T04:59:37.696Z,99782.63
2022-09-17T05:02:09.502Z,99783.47
2022-09-17T05:04:41.242Z,99790.22
2022-09-17T05:07:13.968Z,99792.09
2022-09-17T05:09:45.619Z,99800.72
2022-09-17T05:12:17.378Z,99794.50
2022-09-17T05:14:48.836Z,99803.66
2022-09-17T05:17:20.613Z,99798.78
2022-09-17T05:19:53.292Z,99801.78
2022-09-17T05:22:25.132Z,99807.44
2022-09-17T05:24:57.201Z,99804.25
2022-09-17T05:27:29.199Z,99811.22
2022-09-17T05:30:00.654Z,99807.53
2022-09-17T05:32:32.435Z,99802.75
2022-09-17T05:35:05.753Z,99811.38
2022-09-17T05:37:37.841Z,99808.53
2022-09-17T05:40:09.382Z,99807.19
2022-09-17T05:42:41.419Z,99813.75
2022-09-17T05:45:12.913Z,99812.56
2022-09-17T05:47:44.411Z,99813.81
2022-09-17T05:50:16.129Z,99814.06
2022-09-17T05:52:47.910Z,99825.03
2022-09-17T05:55:19.447Z,99822.91
2022-09-17T05:57:51.284Z,99827.19
2022-09-17T06:00:22.844Z,99831.13
2022-09-17T06:02:54.519Z,99818.13
2022-09-17T06:05:26.054Z,99819.94
2022-09-17T06:07:57.552Z,99825.81
2022-09-17T06:10:29.388Z,99826.69
2022-09-17T06:13:01.338Z,99828.31
2022-09-17T06:15:32.794Z,99836.59
2022-09-17T06:18:04.608Z,99838.66
2022-09-17T06:20:36.099Z,99843.84
2022-09-17T06:23:11.655Z,99849.22
2022-09-17T06:25:46.760Z,99843.75
2022-09-17T06:28:18.556Z,99841.59
2022-09-17T06:30:52.632Z,99851.69
2022-09-17T06:33:24.201Z,99855.16
2022-09-17T06:35:55.672Z,99847.16
2022-09-17T06:38:27.481Z,99851.53
2022-09-17T06:40:58.938Z,99849.63
2022-09-17T06:43:30.695Z,99846.22
2022-09-17T06:46:02.181Z,99854.25
2022-09-17T06:48:33.833Z,99847.81
2022-09-17T06:51:05.299Z,99852.47
2022-09-17T06:53:37.877Z,99849.00
2022-09-17T06:56:09.400Z,99847.50
2022-09-17T06:58:42.228Z,99852.59
2022-09-17T07:01:14.072Z,99852.50
2022-09-17T07:03:45.692Z,99861.91
2022-09-17T07:06:17.514Z,99855.03
2022-09-17T07:08:48.961Z,99863.47
2022-09-17T07:11:20.447Z,99854.69
2022-09-17T07:13:52.161Z,99857.41
2022-09-17T07:16:24.490Z,99858.03
2022-09-17T07:18:55.995Z,99862.69
2022-09-17T07:21:27.853Z,99858.75
2022-09-17T07:24:06.264Z,99863.53
2022-09-17T07:26:38.064Z,99858.72
2022-09-17T07:29:09.734Z,99863.22
2022-09-17T07:31:41.336Z,99866.16
2022-09-17T07:34:12.834Z,99859.19
2022-09-17T07:36:45.048Z,99863.53
2022-09-17T07:39:16.516Z,99864.69
2022-09-17T07:41:49.201Z,99860.97
2022-09-17T07:44:22.301Z,99859.19
2022-09-17T07:46:53.842Z,99854.91
2022-09-17T07:49:25.367Z,99861.88
2022-09-17T07:51:57.123Z,99856.75
2022-09-17T07:54:29.024Z,99855.97
2022-09-17T07:57:00.602Z,99857.03
2022-09-17T07:59:32.182Z,99857.03
2022-09-17T08:02:04.217Z,99854.31
2022-09-17T08:04:35.786Z,99847.34
2022-09-17T08:07:07.784Z,99849.22
2022-09-17T08:09:39.384Z,99855.38
2022-09-17T08:12:10.920Z,99855.03
2022-09-17T08:14:42.829Z,99843.56
2022-09-17T08:17:14.623Z,99853.00
2022-09-17T08:19:46.109Z,99848.16
2022-09-17T08:22:17.917Z,99856.47
2022-09-17T08:24:49.697Z,99856.72
2022-09-17T08:27:21.472Z,99854.56
2022-09-17T08:29:53.027Z,99860.41
2022-09-17T08:32:24.848Z,99866.50
2022-09-17T08:34:58.343Z,99862.66
2022-09-17T08:37:31.047Z,99867.22
2022-09-17T08:40:02.653Z,99863.72
2022-09-17T08:42:34.496Z,99854.56
2022-09-17T08:45:05.962Z,99859.94
2022-09-17T08:47:38.110Z,99861.06
2022-09-17T08:50:09.590Z,99858.09
2022-09-17T08:52:42.300Z,99869.31
2022-09-17T08:55:15.197Z,99851.09
2022-09-17T08:57:47.046Z,99866.03
2022-09-17T09:00:18.680Z,99866.69
2022-09-17T09:02:50.564Z,99861.00
2022-09-17T09:05:22.795Z,99862.81
2022-09-17T09:07:54.816Z,99866.56
2022-09-17T09:10:26.277Z,99873.34
2022-09-17T09:12:58.071Z,99875.59
2022-09-17T09:15:30.406Z,99873.22
2022-09-17T09:18:03.384Z,99883.28
2022-09-17T09:20:35.301Z,99876.47
2022-09-17T09:23:06.772Z,99883.56
2022-09-17T09:25:38.545Z,99873.78
2022-09-17T09:28:10.090Z,99885.94
2022-09-17T09:30:42.025Z,99894.41
2022-09-17T09:33:14.187Z,99888.28
2022-09-17T09:35:46.012Z,99894.31
2022-09-17T09:38:17.489Z,99896.97
2022-09-17T09:40:48.975Z,99893.19
2022-09-17T09:43:20.469Z,99899.84
2022-09-17T09:45:52.268Z,99882.31
2022-09-17T09:48:23.744Z,99893.34
2022-09-17T09:51:06.279Z,99767.03
2022-09-17T09:53:38.239Z,99885.88
2022-09-17T09:56:10.226Z,99893.97
2022-09-17T09:58:41.759Z,99886.00
2022-09-17T10:01:13.598Z,99902.34
2022-09-17T10:03:46.196Z,99908.31
2022-09-17T10:06:18.113Z,99917.94
2022-09-17T10:08:49.642Z,99917.91
2022-09-17T10:11:22.669Z,99923.84
2022-09-17T10:13:54.511Z,99920.38
2022-09-17T10:16:26.425Z,99922.25
2022-09-17T10:18:57.974Z,99921.31
2022-09-17T10:21:30.190Z,99913.09
2022-09-17T10:24:01.659Z,99916.78
2022-09-17T10:26:33.140Z,99909.16
2022-09-17T10:29:04.690Z,99907.84
2022-09-17T10:31:36.231Z,99910.09
2022-09-17T10:34:07.775Z,99908.81
2022-09-17T10:36:39.833Z,99915.03
2022-09-17T10:39:11.279Z,99922.28
2022-09-17T10:41:42.893Z,99926.69
2022-09-17T10:44:14.357Z,99924.91
2022-09-17T10:46:46.114Z,99928.75
2022-09-17T10:49:17.645Z,99919.66
2022-09-17T10:51:49.484Z,99903.84
2022-09-17T10:54:20.960Z,99933.38
2022-09-17T10:56:52.646Z,99937.50
2022-09-17T10:59:24.129Z,99937.06
2022-09-17T11:01:55.785Z,99931.31
2022-09-17T11:04:27.360Z,99934.22
2022-09-17T11:06:59.205Z,99928.69
2022-09-17T11:09:30.720Z,99938.22
2022-09-17T11:12:02.191Z,99938.13
2022-09-17T11:14:35.986Z,99939.44
2022-09-17T11:17:07.855Z,99935.63
2022-09-17T11:19:39.387Z,99930.75
2022-09-17T11:22:10.849Z,99936.44
2022-09-17T11:24:46.645Z,99927.19
2022-09-17T11:27:18.600Z,99929.06
2022-09-17T11:29:50.169Z,99922.81
2022-09-17T11:32:22.088Z,99927.69
2022-09-17T11:34:53.810Z,99925.81
2022-09-17T11:37:25.309Z,99925.78
2022-09-17T11:39:57.368Z,99950.56
2022-09-17T11:42:29.304Z,99935.31
2022-09-17T11:45:00.884Z,99930.44
2022-09-17T11:47:32.696Z,99908.09
2022-09-17T11:50:04.190Z,99914.00
2022-09-17T11:52:36.048Z,99914.50
2022-09-17T11:55:07.532Z,99918.28
2022-09-17T11:57:39.353Z,99909.44
2022-09-17T12:00:10.848Z,99907.97
2022-09-17T12:02:42.905Z,99908.03
2022-09-17T12:05:14.440Z,99903.97
2022-09-17T12:07:46.228Z,99908.19
2022-09-17T12:10:17.723Z,99915.91
2022-09-17T12:12:50.686Z,99905.47
2022-09-17T12:15:22.294Z,99905.59
2022-09-17T12:18:08.763Z,99907.47
2022-09-17T12:20:45.562Z,99912.69
2022-09-17T12:23:17.060Z,99907.38
2022-09-17T12:25:49.318Z,99896.41
2022-09-17T12:28:20.810Z,99915.75
2022-09-17T12:30:52.725Z,99903.81
2022-09-17T12:33:24.256Z,99897.47
2022-09-17T12:36:04.927Z,99889.28
2022-09-17T12:38:37.503Z,99827.00
2022-09-17T12:41:09.396Z,99887.97
2022-09-17T12:43:40.965Z,99884.25
2022-09-17T12:46:12.839Z,99875.06
2022-09-17T12:48:44.362Z,99863.16
2022-09-17T12:51:18.468Z,99882.19
2022-09-17T12:53:49.957Z,99866.91
2022-09-17T12:56:21.772Z,99861.31
2022-09-17T12:58:53.251Z,99859.16
2022-09-17T13:01:25.602Z,99878.38
2022-09-17T13:03:57.087Z,99874.13
2022-09-17T13:06:29.048Z,99878.19
2022-09-17T13:09:00.565Z,99884.94
2022-09-17T13:11:32.397Z,99877.94
2022-09-17T13:14:03.871Z,99885.09
2022-09-17T13:16:35.801Z,99880.56
2022-09-17T13:19:23.082Z,99878.00
2022-09-17T13:21:56.007Z,99884.69
2022-09-17T13:24:29.741Z,99882.22
2022-09-17T13:27:02.337Z,99883.19
2022-09-17T13:29:33.828Z,99883.72
2022-09-17T13:32:05.642Z,99879.13
2022-09-17T13:34:37.132Z,99881.06
2022-09-17T13:37:09.284Z,99873.94
2022-09-17T13:39:40.769Z,99883.03
2022-09-17T13:42:12.636Z,99880.41
2022-09-17T13:44:44.137Z,99867.84
2022-09-17T13:47:16.003Z,99870.06
2022-09-17T13:49:47.545Z,99853.44
2022-09-17T13:52:19.465Z,99858.50
2022-09-17T13:54:51.071Z,99866.19
2022-09-17T13:57:23.052Z,99859.25
2022-09-17T13:59:54.605Z,99866.69
2022-09-17T14:02:30.887Z,99852.06
2022-09-17T14:05:02.653Z,99852.72
2022-09-17T14:07:34.587Z,99865.38
2022-09-17T14:10:06.078Z,99857.16
2022-09-17T14:12:38.049Z,99861.50
2022-09-17T14:15:09.558Z,99879.59
2022-09-17T14:17:41.503Z,99863.03
2022-09-17T14:20:13.079Z,99858.41
2022-09-17T14:22:44.885Z,99867.09
2022-09-17T14:25:16.389Z,99857.34
2022-09-17T14:27:48.443Z,99861.91
2022-09-17T14:30:20.013Z,99856.06
2022-09-17T14:32:51.950Z,99866.78
2022-09-17T14:35:23.582Z,99875.31
2022-09-17T14:37:55.096Z,99879.41
2022-09-17T14:40:26.700Z,99879.03
2022-09-17T14:42:58.224Z,99867.84
2022-09-17T14:45:29.744Z,99878.66
2022-09-17T14:48:01.502Z,99900.00
2022-09-17T14:50:33.045Z,99892.59
2022-09-17T14:53:04.845Z,99879.09
2022-09-17T14:55:36.344Z,99891.28
2022-09-17T14:58:08.179Z,99878.13
2022-09-17T15:00:40.431Z,99875.94
2022-09-17T15:03:12.103Z,99891.53
2022-09-17T15:05:44.008Z,99899.41
2022-09-17T15:08:15.674Z,99896.13
2022-09-17T15:10:48.333Z,99894.09
2022-09-17T15:13:19.819Z,99888.25
2022-09-17T15:15:51.347Z,99884.06
2022-09-17T15:18:22.890Z,99884.47
2022-09-17T15:20:54.463Z,99878.84
2022-09-17T15:23:26.020Z,99875.31
2022-09-17T15:25:58.152Z,99887.19
2022-09-17T15:28:29.849Z,99893.13
2022-09-17T15:31:01.825Z,99890.53
2022-09-17T15:33:33.373Z,99894.59
2022-09-17T15:36:08.401Z,99901.06
2022-09-17T15:38:41.479Z,99881.97
2022-09-17T15:41:15.652Z,99895.38
2022-09-17T15:43:49.587Z,99892.94
2022-09-17T15:46:21.298Z,99893.69
2022-09-17T15:48:52.828Z,99889.38
2022-09-17T15:51:25.660Z,99895.53
2022-09-17T15:53:57.200Z,99887.16
2022-09-17T15:56:28.694Z,99884.97
2022-09-17T15:59:00.350Z,99885.53
2022-09-17T16:01:32.255Z,99794.78
2022-09-17T16:04:03.739Z,99873.41
2022-09-17T16:06:35.529Z,99884.81
2022-09-17T16:09:07.020Z,99896.03
2022-09-17T16:11:40.746Z,99897.38
2022-09-17T16:14:12.254Z,99896.50
2022-09-17T16:16:44.101Z,99895.44
2022-09-17T16:19:15.607Z,99889.84
2022-09-17T16:21:47.440Z,99890.31
2022-09-17T16:24:18.948Z,99892.00
2022-09-17T16:26:50.770Z,99897.66
2022-09-17T16:29:22.932Z,99811.66
2022-09-17T16:31:54.978Z,99906.69
2022-09-17T16:34:26.520Z,99905.09
2022-09-17T16:36:58.364Z,99906.94
2022-09-17T16:39:29.850Z,99900.28
2022-09-17T16:42:01.725Z,99907.50
2022-09-17T16:44:34.195Z,99903.53
2022-09-17T16:47:06.584Z,99897.06
2022-09-17T16:49:38.130Z,99908.44
2022-09-17T16:52:09.977Z,99901.25
2022-09-17T16:54:41.492Z,99898.53
2022-09-17T16:57:13.372Z,99896.81
2022-09-17T16:59:44.870Z,99898.84
2022-09-17T17:02:16.848Z,99910.28
2022-09-17T17:04:48.408Z,99906.88
2022-09-17T17:07:20.944Z,99897.69
2022-09-17T17:09:52.435Z,99899.41
2022-09-17T17:12:24.321Z,99900.81
2022-09-17T17:14:56.315Z,99900.09
2022-09-17T17:17:27.854Z,99886.75
2022-09-17T17:19:59.558Z,99891.47
2022-09-17T17:22:31.060Z,99892.03
2022-09-17T17:25:02.937Z,99886.56
2022-09-17T17:27:34.513Z,99890.56
2022-09-17T17:30:07.073Z,99895.91
2022-09-17T17:32:38.619Z,99889.69
2022-09-17T17:35:10.438Z,99891.22
2022-09-17T17:40:15.641Z,99887.63
2022-09-17T17:42:47.518Z,99890.19
2022-09-17T17:45:19.400Z,99888.88
2022-09-17T17:47:50.931Z,99890.19
2022-09-17T17:50:22.897Z,99890.56
2022-09-17T17:52:54.393Z,99889.44
2022-09-17T17:55:26.835Z,99886.34
2022-09-17T17:58:01.299Z,99886.84
2022-09-17T18:00:33.561Z,99891.94
2022-09-17T18:03:05.124Z,99894.41
2022-09-17T18:05:36.692Z,99901.88
2022-09-17T18:08:08.193Z,99906.41
2022-09-17T18:10:40.036Z,99909.00
2022-09-17T18:13:11.527Z,99908.63
2022-09-17T18:15:43.410Z,99903.41
2022-09-17T18:18:14.940Z,99913.41
2022-09-17T18:20:46.763Z,99908.63
2022-09-17T18:23:18.259Z,99907.97
2022-09-17T18:25:50.188Z,99913.88
2022-09-17T18:28:21.695Z,99905.00
2022-09-17T18:30:53.535Z,99905.06
2022-09-17T18:33:25.060Z,99907.75
2022-09-17T18:35:57.706Z,99913.72
2022-09-17T18:38:29.171Z,99919.44
2022-09-17T18:41:00.684Z,99929.06
2022-09-17T18:43:32.242Z,99929.22
2022-09-17T18:46:04.250Z,99914.19
2022-09-17T18:48:36.793Z,99918.53
2022-09-17T18:51:09.076Z,99921.91
2022-09-17T18:53:40.743Z,99921.25
2022-09-17T18:56:12.524Z,99922.94
2022-09-17T18:58:44.054Z,99921.34
2022-09-17T19:01:15.977Z,99921.34
2022-09-17T19:03:48.496Z,99919.16
2022-09-17T19:06:20.066Z,99917.78
2022-09-17T19:08:51.903Z,99916.63
2022-09-17T19:11:23.411Z,99917.94
2022-09-17T19:13:55.013Z,99917.44
2022-09-17T19:16:26.890Z,99926.72
2022-09-17T19:18:58.805Z,99924.41
2022-09-17T19:21:30.297Z,99925.22
2022-09-17T19:24:03.691Z,99925.69
2022-09-17T19:26:35.205Z,99921.50
2022-09-17T19:29:08.396Z,99919.19
2022-09-17T19:31:40.073Z,99917.53
2022-09-17T19:34:12.053Z,99923.25
2022-09-17T19:36:43.554Z,99921.47
2022-09-17T19:39:15.492Z,99917.78
2022-09-17T19:41:46.982Z,99924.25
2022-09-17T19:44:18.790Z,99927.94
2022-09-17T19:46:52.832Z,99925.75
2022-09-17T19:49:24.748Z,99924.94
2022-09-17T19:51:56.266Z,99915.56
2022-09-17T19:54:28.280Z,99910.22
2022-09-17T19:56:59.828Z,99915.97
2022-09-17T19:59:31.723Z,99915.41
2022-09-17T20:02:03.309Z,99911.84
2022-09-17T20:04:35.419Z,99915.41
2022-09-17T20:07:06.904Z,99915.09
2022-09-17T20:09:38.693Z,99917.84
2022-09-17T20:12:10.174Z,99916.56
2022-09-17T20:14:43.106Z,99917.84
2022-09-17T20:17:14.667Z,99917.28
2022-09-17T20:19:46.505Z,99903.47
2022-09-17T20:22:18.033Z,99899.50
2022-09-17T20:24:51.132Z,99906.75
2022-09-17T20:27:22.854Z,99764.28
2022-09-17T20:29:54.667Z,99910.00
2022-09-17T20:32:26.177Z,99900.81
2022-09-17T20:34:58.228Z,99904.44
2022-09-17T20:38:16.082Z,99901.38
2022-09-17T20:40:21.438Z,99900.09
2022-09-17T20:42:53.317Z,99900.16
2022-09-17T20:45:24.807Z,99906.53
2022-09-17T20:47:56.687Z,99902.84
2022-09-17T20:50:28.180Z,99905.16
2022-09-17T20:53:00.035Z,99908.00
2022-09-17T20:55:31.614Z,99899.78
2022-09-17T20:58:03.616Z,99905.91
2022-09-17T21:00:35.735Z,99901.47
2022-09-17T21:03:07.616Z,99909.72
2022-09-17T21:05:39.103Z,99899.38
2022-09-17T21:08:11.147Z,99903.44
2022-09-17T21:10:42.647Z,99911.63
2022-09-17T21:13:14.453Z,99905.00
2022-09-17T21:15:45.956Z,99902.47
2022-09-17T21:18:17.530Z,99905.16
2022-09-17T21:20:49.006Z,99905.16
2022-09-17T21:23:20.901Z,99903.63
2022-09-17T21:25:52.445Z,99908.38
2022-09-17T21:28:24.303Z,99905.00
2022-09-17T21:30:55.835Z,99901.84
2022-09-17T21:33:27.684Z,99909.19
2022-09-17T21:35:59.169Z,99902.31
2022-09-17T21:38:30.739Z,99904.34
2022-09-17T21:41:02.250Z,99906.75
2022-09-17T21:43:34.606Z,99910.47
2022-09-17T21:46:06.229Z,99906.59
2022-09-17T21:48:37.839Z,99911.78
2022-09-17T21:51:09.386Z,99908.53
2022-09-17T21:53:41.394Z,99907.50
2022-09-17T21:56:12.876Z,99913.56
2022-09-17T21:58:44.732Z,99906.94
2022-09-17T22:01:19.290Z,99910.16
2022-09-17T22:03:51.245Z,99918.41
2022-09-17T22:06:22.721Z,99915.91
2022-09-17T22:08:54.485Z,99917.09
2022-09-17T22:11:26.010Z,99918.06
2022-09-17T22:13:57.543Z,99920.50
2022-09-17T22:16:32.175Z,99914.03
2022-09-17T22:19:04.092Z,99925.75
2022-09-17T22:21:36.061Z,99919.84
2022-09-17T22:24:07.632Z,99915.56
2022-09-17T22:26:39.174Z,99920.66
2022-09-17T22:29:11.166Z,99919.63
2022-09-17T22:31:42.785Z,99910.06
2022-09-17T22:34:14.841Z,99914.94
2022-09-17T22:36:46.423Z,99912.03
2022-09-17T22:39:19.332Z,99911.28
2022-09-17T22:41:51.086Z,99907.50
2022-09-17T22:44:23.103Z,99910.47
2022-09-17T22:46:54.805Z,99911.38
2022-09-17T22:49:26.682Z,99908.69
2022-09-17T22:51:58.192Z,99904.91
2022-09-17T22:54:30.333Z,99910.81
2022-09-17T22:57:01.820Z,99904.91
2022-09-17T22:59:33.672Z,99896.09
2022-09-17T23:02:05.199Z,99901.50
2022-09-17T23:04:36.836Z,99895.13
2022-09-17T23:07:08.710Z,99901.25
2022-09-17T23:09:40.223Z,99898.34
2022-09-17T23:12:11.697Z,99895.03
2022-09-17T23:14:43.629Z,99892.13
2022-09-17T23:17:15.184Z,99891.66
2022-09-17T23:19:47.044Z,99887.53
2022-09-17T23:22:20.883Z,99889.16
2022-09-17T23:24:52.702Z,99886.56
2022-09-17T23:27:24.190Z,99883.34
2022-09-17T23:29:56.129Z,99880.34
2022-09-17T23:32:27.612Z,99884.13
2022-09-17T23:34:59.472Z,99887.38
2022-09-17T23:37:31.339Z,99889.97
2022-09-17T23:40:03.683Z,99886.56
2022-09-17T23:42:35.529Z,99889.72
2022-09-17T23:45:07.031Z,99890.03
2022-09-17T23:47:38.523Z,99885.25
2022-09-17T23:50:10.356Z,99893.75
2022-09-17T23:52:41.850Z,99883.34
2022-09-17T23:55:13.692Z,99889.72
2022-09-17T23:57:45.294Z,99881.72
